Time;durP1;ratioP1;P1;durP2;ratioP2;P2;SDS_P1;SDS_P2;PMS_P1;PMS_P2;Temp;Humidity;BMP_temperature;BMP_pressure;BME280_temperature;BME280_humidity;BME280_pressure;Samples;Min_cycle;Max_cycle;Signal;HPM_P1;HPM_P2
2023/08/19 00:00:13;;;;;;;11.63;10.57;;;24.30;99.90;;;;;;5075737;28;20466;-80
2023/08/19 00:02:40;;;;;;;11.83;10.73;;;24.20;99.90;;;;;;5074963;28;20931;-82
2023/08/19 00:05:08;;;;;;;11.23;10.30;;;24.20;99.90;;;;;;5074899;28;20466;-83
2023/08/19 00:07:35;;;;;;;12.37;11.37;;;24.20;99.90;;;;;;5074609;28;20493;-82
2023/08/19 00:10:04;;;;;;;12.10;11.10;;;24.20;99.90;;;;;;5075231;28;20466;-82
2023/08/19 00:12:31;;;;;;;12.70;11.73;;;24.20;99.90;;;;;;5074534;28;20466;-83
2023/08/19 00:14:58;;;;;;;11.80;10.90;;;24.10;99.90;;;;;;5075012;28;20493;-82
2023/08/19 00:17:26;;;;;;;11.93;10.93;;;24.10;99.90;;;;;;5073438;28;20470;-81
2023/08/19 00:19:54;;;;;;;12.13;10.90;;;24.10;99.90;;;;;;5074779;28;20493;-82
2023/08/19 00:22:21;;;;;;;12.20;11.10;;;24.10;99.90;;;;;;5073940;28;20890;-83
2023/08/19 00:24:51;;;;;;;11.60;10.60;;;24.00;99.90;;;;;;5075396;28;20462;-81
2023/08/19 00:27:18;;;;;;;12.07;11.10;;;24.00;99.90;;;;;;5074254;28;20473;-81
2023/08/19 00:29:45;;;;;;;12.63;11.33;;;24.00;99.90;;;;;;5075018;28;20462;-81
2023/08/19 00:32:12;;;;;;;11.03;10.23;;;24.00;99.90;;;;;;5074668;28;20850;-81
2023/08/19 00:34:40;;;;;;;12.40;11.40;;;24.00;99.90;;;;;;5068457;28;20506;-83
2023/08/19 00:37:09;;;;;;;12.03;10.93;;;24.00;99.90;;;;;;5054212;28;20463;-81
2023/08/19 00:39:36;;;;;;;13.00;11.87;;;23.90;99.90;;;;;;5053840;28;20558;-83
2023/08/19 00:42:06;;;;;;;11.00;10.20;;;23.90;99.90;;;;;;5054763;28;20976;-81
2023/08/19 00:44:34;;;;;;;11.10;10.30;;;23.90;99.90;;;;;;5054069;28;20546;-80
2023/08/19 00:47:01;;;;;;;12.47;11.53;;;23.90;99.90;;;;;;5054152;28;20491;-83
2023/08/19 00:49:28;;;;;;;10.97;10.27;;;23.90;99.90;;;;;;5053865;28;20836;-83
2023/08/19 00:51:58;;;;;;;11.87;10.97;;;23.90;99.90;;;;;;5054006;28;20458;-82
2023/08/19 00:54:27;;;;;;;11.23;10.10;;;23.90;99.90;;;;;;5053236;28;21020;-83
2023/08/19 00:56:55;;;;;;;11.77;10.87;;;23.90;99.90;;;;;;5054684;28;20478;-80
2023/08/19 00:59:22;;;;;;;11.30;10.50;;;23.80;99.90;;;;;;5052933;28;20478;-81
2023/08/19 01:01:49;;;;;;;11.60;10.70;;;23.80;99.90;;;;;;5054657;28;20787;-81
2023/08/19 01:04:17;;;;;;;11.70;10.70;;;23.80;99.90;;;;;;5053979;28;20471;-82
2023/08/19 01:06:52;;;;;;;12.13;11.23;;;23.80;99.90;;;;;;5053303;28;20930;-80
2023/08/19 01:09:32;;;;;;;12.50;11.50;;;23.80;99.90;;;;;;5053363;28;20467;-81
2023/08/19 01:12:13;;;;;;;10.70;10.00;;;23.80;99.90;;;;;;5054213;28;20545;-82
2023/08/19 01:14:51;;;;;;;10.80;9.83;;;23.70;99.90;;;;;;5053973;28;20468;-80
2023/08/19 01:17:21;;;;;;;13.43;10.67;;;23.70;99.90;;;;;;5053597;28;20447;-81
2023/08/19 01:19:49;;;;;;;11.40;10.50;;;23.70;99.90;;;;;;5053643;28;20530;-80
2023/08/19 01:22:29;;;;;;;12.30;11.30;;;23.60;99.90;;;;;;5044262;28;20494;-82
2023/08/19 01:24:58;;;;;;;11.93;10.53;;;23.60;99.90;;;;;;5064892;28;20848;-81
2023/08/19 01:27:26;;;;;;;12.63;11.37;;;23.60;99.90;;;;;;5052667;28;20532;-83
2023/08/19 01:29:55;;;;;;;11.57;10.63;;;23.50;99.90;;;;;;5053026;28;20470;-83
2023/08/19 01:32:23;;;;;;;12.30;11.40;;;23.50;99.90;;;;;;5052714;28;20518;-79
2023/08/19 01:34:51;;;;;;;11.73;10.70;;;23.50;99.90;;;;;;5059800;28;20462;-82
2023/08/19 01:37:24;;;;;;;11.07;10.17;;;23.50;99.90;;;;;;5072151;28;20469;-81
2023/08/19 01:39:53;;;;;;;11.87;10.97;;;23.50;99.90;;;;;;5073634;28;20684;-83
2023/08/19 01:42:23;;;;;;;11.10;10.30;;;23.50;99.90;;;;;;5072830;28;20470;-81
2023/08/19 01:44:51;;;;;;;12.43;11.50;;;23.40;99.90;;;;;;5073364;28;20979;-83
2023/08/19 01:47:18;;;;;;;11.90;10.90;;;23.40;99.90;;;;;;5072717;28;20481;-82
2023/08/19 01:49:45;;;;;;;13.73;12.43;;;23.40;99.90;;;;;;5073331;28;20881;-80
2023/08/19 01:52:13;;;;;;;13.37;12.03;;;23.40;99.90;;;;;;5072807;28;20462;-82
2023/08/19 01:54:40;;;;;;;12.40;11.40;;;23.40;99.90;;;;;;5072623;28;21050;-81
2023/08/19 01:57:08;;;;;;;11.23;10.30;;;23.40;99.90;;;;;;5072807;28;20810;-82
2023/08/19 01:59:36;;;;;;;12.60;11.50;;;23.40;99.90;;;;;;5072876;28;20523;-82
2023/08/19 02:02:30;;;;;;;12.00;11.00;;;23.40;99.90;;;;;;5073346;28;20976;-83
2023/08/19 02:04:57;;;;;;;12.40;11.40;;;23.40;99.90;;;;;;5073151;28;20484;-83
2023/08/19 02:07:24;;;;;;;13.60;12.40;;;23.40;99.90;;;;;;5073009;28;20473;-80
2023/08/19 02:09:51;;;;;;;13.53;12.43;;;23.40;99.90;;;;;;5072951;28;20533;-81
2023/08/19 02:12:18;;;;;;;12.57;11.67;;;23.30;99.90;;;;;;5073209;28;20467;-83
2023/08/19 02:14:46;;;;;;;13.00;11.90;;;23.30;99.90;;;;;;5073136;28;20985;-83
2023/08/19 02:17:13;;;;;;;12.27;11.27;;;23.30;99.90;;;;;;5073569;28;20458;-81
2023/08/19 02:19:40;;;;;;;11.70;10.80;;;23.30;99.90;;;;;;5073364;28;20522;-82
2023/08/19 02:22:07;;;;;;;12.40;11.37;;;23.30;99.90;;;;;;5072825;28;20466;-83
2023/08/19 02:24:34;;;;;;;11.27;10.43;;;23.30;99.90;;;;;;5073108;28;20477;-81
2023/08/19 02:27:01;;;;;;;12.43;11.53;;;23.30;99.90;;;;;;5072344;28;20466;-82
2023/08/19 02:29:28;;;;;;;11.37;10.57;;;23.20;99.90;;;;;;5073025;28;20527;-83
2023/08/19 02:31:59;;;;;;;12.63;11.50;;;23.20;99.90;;;;;;5072708;28;20470;-81
2023/08/19 02:34:26;;;;;;;12.67;11.67;;;23.20;99.90;;;;;;5069223;28;20481;-83
2023/08/19 02:36:53;;;;;;;12.00;10.97;;;23.10;99.90;;;;;;5052537;28;20529;-82
2023/08/19 02:39:20;;;;;;;12.77;11.83;;;23.10;99.90;;;;;;5053745;28;20545;-81
2023/08/19 02:41:48;;;;;;;14.07;12.90;;;23.10;99.90;;;;;;5056684;28;20483;-81
2023/08/19 02:44:15;;;;;;;12.00;10.90;;;23.10;99.90;;;;;;5055736;28;20477;-81
2023/08/19 02:46:42;;;;;;;12.60;11.70;;;23.10;99.90;;;;;;5056436;28;20463;-83
2023/08/19 02:49:10;;;;;;;12.07;11.03;;;23.10;99.90;;;;;;5055778;28;20502;-83
2023/08/19 02:51:37;;;;;;;13.70;12.40;;;23.10;99.90;;;;;;5056650;28;20537;-82
2023/08/19 02:54:04;;;;;;;12.03;11.03;;;23.10;99.90;;;;;;5055654;28;20471;-81
2023/08/19 02:56:31;;;;;;;13.30;12.07;;;23.10;99.90;;;;;;5056272;28;20521;-81
2023/08/19 02:59:03;;;;;;;13.13;12.13;;;23.10;99.90;;;;;;5055630;28;20513;-81
2023/08/19 03:01:33;;;;;;;11.70;10.80;;;23.00;99.90;;;;;;5056526;28;20540;-81
2023/08/19 03:04:00;;;;;;;11.40;10.57;;;23.00;99.90;;;;;;5055840;28;20478;-81
2023/08/19 03:06:28;;;;;;;11.83;10.90;;;23.00;99.90;;;;;;5056563;28;20462;-83
2023/08/19 03:08:55;;;;;;;14.07;12.87;;;23.00;99.90;;;;;;5055866;28;20875;-81
2023/08/19 03:11:22;;;;;;;12.60;11.50;;;23.00;99.90;;;;;;5054966;28;20532;-81
2023/08/19 03:13:49;;;;;;;11.80;10.60;;;22.90;99.90;;;;;;5056181;28;20775;-81
2023/08/19 03:16:17;;;;;;;12.60;11.70;;;22.90;99.90;;;;;;5055208;28;20471;-83
2023/08/19 03:18:44;;;;;;;13.20;12.20;;;22.90;99.90;;;;;;5056233;28;21031;-83
2023/08/19 03:21:11;;;;;;;12.73;11.53;;;22.90;99.90;;;;;;5055439;28;20471;-81
2023/08/19 03:23:40;;;;;;;13.20;11.77;;;22.90;99.90;;;;;;5056066;28;20472;-82
2023/08/19 03:26:07;;;;;;;12.83;11.73;;;22.90;99.90;;;;;;5055098;28;20499;-81
2023/08/19 03:28:34;;;;;;;13.90;12.50;;;22.90;99.90;;;;;;5055960;28;20964;-84
2023/08/19 03:31:07;;;;;;;12.80;11.73;;;22.80;99.90;;;;;;5055707;28;20472;-82
2023/08/19 03:33:34;;;;;;;13.77;12.77;;;22.80;99.90;;;;;;5055796;28;20549;-82
2023/08/19 03:36:02;;;;;;;12.70;11.80;;;22.80;99.90;;;;;;5071260;28;20467;-82
2023/08/19 03:38:29;;;;;;;14.30;13.00;;;22.80;99.90;;;;;;5075841;28;20864;-82
2023/08/19 03:40:57;;;;;;;12.57;11.57;;;22.80;99.90;;;;;;5075472;28;20545;-80
2023/08/19 03:43:29;;;;;;;14.27;13.03;;;22.80;99.90;;;;;;5075277;28;20463;-82
2023/08/19 03:46:05;;;;;;;14.47;13.27;;;22.80;99.90;;;;;;5075546;28;20470;-80
2023/08/19 03:48:37;;;;;;;13.70;12.60;;;22.70;99.90;;;;;;5074258;28;20761;-81
2023/08/19 03:51:05;;;;;;;13.50;12.30;;;22.70;99.90;;;;;;5074400;28;20462;-80
2023/08/19 03:53:32;;;;;;;12.90;11.87;;;22.70;99.90;;;;;;5074766;28;20454;-80
2023/08/19 03:56:03;;;;;;;13.30;12.30;;;22.70;99.90;;;;;;5075490;28;20847;-82
2023/08/19 03:58:32;;;;;;;15.77;14.43;;;22.70;99.90;;;;;;5074500;28;20456;-80
2023/08/19 04:01:05;;;;;;;12.30;11.33;;;22.70;99.90;;;;;;5075379;28;20501;-82
2023/08/19 04:03:32;;;;;;;14.93;13.83;;;22.70;99.90;;;;;;5075159;28;20780;-80
2023/08/19 04:05:59;;;;;;;12.50;11.60;;;22.70;99.90;;;;;;5074920;28;20475;-82
2023/08/19 04:08:27;;;;;;;14.33;13.13;;;22.70;99.90;;;;;;5073028;28;21027;-82
2023/08/19 04:10:56;;;;;;;14.67;13.47;;;22.70;99.90;;;;;;5075288;28;20467;-81
2023/08/19 04:13:35;;;;;;;15.83;14.53;;;22.70;99.90;;;;;;5064419;28;21011;-80
2023/08/19 04:16:04;;;;;;;14.73;13.47;;;22.70;99.90;;;;;;5074544;28;20466;-82
2023/08/19 04:18:31;;;;;;;14.87;13.37;;;22.70;99.90;;;;;;5075340;28;20495;-80
2023/08/19 04:20:58;;;;;;;14.50;13.30;;;22.70;99.90;;;;;;5075060;28;20574;-82
2023/08/19 04:23:25;;;;;;;16.03;14.07;;;22.70;99.90;;;;;;5074262;28;20498;-82
2023/08/19 04:25:55;;;;;;;14.70;13.40;;;22.70;99.90;;;;;;5074893;28;20477;-81
2023/08/19 04:28:22;;;;;;;15.30;14.00;;;22.70;99.90;;;;;;5073809;28;20474;-82
2023/08/19 04:30:50;;;;;;;15.03;13.73;;;22.70;99.90;;;;;;5075678;28;20474;-82
2023/08/19 04:33:17;;;;;;;16.00;14.57;;;22.70;99.90;;;;;;5075157;28;20811;-80
2023/08/19 04:35:45;;;;;;;15.40;14.10;;;22.70;99.90;;;;;;5060278;28;20539;-82
2023/08/19 04:38:11;;;;;;;17.00;15.50;;;22.70;99.90;;;;;;5054328;28;20467;-80
2023/08/19 04:40:39;;;;;;;14.63;13.50;;;22.70;99.90;;;;;;5053870;28;20467;-80
2023/08/19 04:43:07;;;;;;;16.40;15.00;;;22.80;99.90;;;;;;5054505;28;20490;-80
2023/08/19 04:45:34;;;;;;;16.30;14.93;;;22.80;99.90;;;;;;5053946;28;20546;-82
2023/08/19 04:48:02;;;;;;;15.80;14.30;;;22.80;99.90;;;;;;5054220;28;20459;-80
2023/08/19 04:50:29;;;;;;;15.63;14.33;;;22.80;99.90;;;;;;5053837;28;20977;-82
2023/08/19 04:52:56;;;;;;;15.50;13.90;;;22.80;99.90;;;;;;5054357;28;20958;-80
2023/08/19 04:55:23;;;;;;;15.13;13.93;;;22.90;99.90;;;;;;5053458;28;20467;-80
2023/08/19 04:57:50;;;;;;;16.83;15.43;;;22.90;99.90;;;;;;5053532;28;20471;-82
2023/08/19 05:00:17;;;;;;;16.77;15.43;;;22.90;99.90;;;;;;5053823;28;20475;-80
2023/08/19 05:02:44;;;;;;;18.40;16.70;;;23.00;99.90;;;;;;5053185;28;20751;-81
2023/08/19 05:05:12;;;;;;;15.87;14.67;;;22.90;99.90;;;;;;5054076;28;21008;-82
2023/08/19 05:07:39;;;;;;;15.37;14.17;;;23.00;99.90;;;;;;5053758;28;20498;-80
2023/08/19 05:10:07;;;;;;;17.07;15.77;;;23.10;99.90;;;;;;5053978;28;21031;-81
2023/08/19 05:12:34;;;;;;;17.50;16.10;;;23.10;99.90;;;;;;5053019;28;20832;-80
2023/08/19 05:15:01;;;;;;;19.77;18.07;;;23.20;99.90;;;;;;5054062;28;20471;-81
2023/08/19 05:17:28;;;;;;;18.10;16.43;;;23.20;99.90;;;;;;5053390;28;20481;-79
2023/08/19 05:19:56;;;;;;;15.03;13.73;;;23.30;99.90;;;;;;5053948;28;20472;-81
2023/08/19 05:22:24;;;;;;;18.47;16.83;;;23.40;99.90;;;;;;5053253;28;20487;-80
2023/08/19 05:24:51;;;;;;;17.93;16.53;;;23.40;99.90;;;;;;5053806;28;20476;-82
2023/08/19 05:27:18;;;;;;;16.10;14.87;;;23.40;99.90;;;;;;5053689;28;20478;-81
2023/08/19 05:29:45;;;;;;;17.40;15.90;;;23.50;99.90;;;;;;5052685;28;20486;-81
2023/08/19 05:32:12;;;;;;;16.23;14.97;;;23.60;99.90;;;;;;5053577;28;20552;-82
2023/08/19 05:34:39;;;;;;;16.73;15.40;;;23.60;99.90;;;;;;5057672;28;20470;-82
2023/08/19 05:37:06;;;;;;;16.47;15.10;;;23.70;99.90;;;;;;5073486;28;20527;-82
2023/08/19 05:39:34;;;;;;;16.30;15.10;;;23.70;99.90;;;;;;5072607;28;20470;-80
2023/08/19 05:42:01;;;;;;;17.10;15.60;;;23.80;99.90;;;;;;5073571;28;20504;-81
2023/08/19 05:44:28;;;;;;;19.27;17.67;;;23.80;99.90;;;;;;5072917;28;20497;-80
2023/08/19 05:46:55;;;;;;;19.47;17.87;;;23.90;99.90;;;;;;5073447;28;20801;-81
2023/08/19 05:49:22;;;;;;;18.93;17.40;;;23.90;99.90;;;;;;5073477;28;20520;-81
2023/08/19 05:51:49;;;;;;;16.97;15.57;;;23.90;99.90;;;;;;5073100;28;20454;-83
2023/08/19 05:54:19;;;;;;;18.40;16.70;;;23.90;99.90;;;;;;5073004;28;20824;-83
2023/08/19 05:56:47;;;;;;;16.23;15.03;;;24.00;99.90;;;;;;5072138;28;20455;-82
2023/08/19 05:59:15;;;;;;;16.93;15.53;;;24.00;99.90;;;;;;5072969;28;20477;-81
2023/08/19 06:01:41;;;;;;;16.10;14.83;;;24.10;99.90;;;;;;5072852;28;20524;-81
2023/08/19 06:04:08;;;;;;;17.33;15.87;;;24.20;99.90;;;;;;5073446;28;20805;-81
2023/08/19 06:06:36;;;;;;;17.70;16.20;;;24.20;99.90;;;;;;5073132;28;20481;-82
2023/08/19 06:09:04;;;;;;;18.83;17.13;;;24.30;99.90;;;;;;5073334;28;20461;-83
2023/08/19 06:11:31;;;;;;;18.87;16.87;;;24.20;99.90;;;;;;5072731;28;20470;-81
2023/08/19 06:13:59;;;;;;;16.97;15.57;;;24.20;99.90;;;;;;5074955;28;20458;-82
2023/08/19 06:16:27;;;;;;;15.93;14.83;;;24.30;99.90;;;;;;5076868;28;20466;-83
2023/08/19 06:18:54;;;;;;;15.93;14.63;;;24.30;99.90;;;;;;5077010;28;20750;-81
2023/08/19 06:21:21;;;;;;;16.37;15.20;;;24.40;99.90;;;;;;5077193;28;20854;-81
2023/08/19 06:23:48;;;;;;;16.20;14.93;;;24.40;99.90;;;;;;5075682;28;20466;-81
2023/08/19 06:26:15;;;;;;;19.17;17.47;;;24.50;99.90;;;;;;5076708;28;20478;-81
2023/08/19 06:28:42;;;;;;;17.07;15.77;;;24.40;99.90;;;;;;5076863;28;20489;-81
2023/08/19 06:31:11;;;;;;;16.63;15.40;;;24.50;99.90;;;;;;5077209;28;20497;-81
2023/08/19 06:34:23;;;;;;;17.50;16.00;;;24.50;99.90;;;;;;5065155;28;20967;-81
2023/08/19 06:36:53;;;;;;;17.37;15.77;;;24.50;99.90;;;;;;5032838;28;20464;-81
2023/08/19 06:39:25;;;;;;;16.27;15.13;;;24.50;99.90;;;;;;5036731;28;20475;-82
2023/08/19 06:42:00;;;;;;;17.20;16.00;;;24.50;99.90;;;;;;5036687;28;20494;-82
2023/08/19 06:44:30;;;;;;;17.00;15.73;;;24.50;99.90;;;;;;5036380;28;20853;-82
2023/08/19 06:46:59;;;;;;;15.70;14.20;;;24.40;99.90;;;;;;5037573;28;20551;-82
2023/08/19 06:49:26;;;;;;;17.50;16.10;;;24.40;99.90;;;;;;5030984;28;20483;-79
2023/08/19 06:51:54;;;;;;;15.67;14.47;;;24.40;99.90;;;;;;5038457;28;20996;-82
2023/08/19 06:54:22;;;;;;;15.27;14.13;;;24.40;99.90;;;;;;5037700;28;20499;-80
2023/08/19 06:57:00;;;;;;;17.47;16.10;;;24.30;99.90;;;;;;5036199;28;20487;-82
2023/08/19 06:59:33;;;;;;;15.73;14.50;;;24.40;99.90;;;;;;5036492;28;20463;-82
2023/08/19 07:02:05;;;;;;;17.70;16.10;;;24.40;99.90;;;;;;5038524;28;20460;-80
2023/08/19 07:04:39;;;;;;;17.57;16.03;;;24.40;99.90;;;;;;5037058;28;20503;-82
2023/08/19 07:07:10;;;;;;;18.03;16.60;;;24.50;99.90;;;;;;5037467;28;20566;-80
2023/08/19 07:09:41;;;;;;;17.47;16.07;;;24.50;99.90;;;;;;5037024;28;20983;-82
2023/08/19 07:12:14;;;;;;;20.63;18.90;;;24.60;99.90;;;;;;5037584;28;20472;-82
2023/08/19 07:14:57;;;;;;;20.87;18.97;;;24.60;99.90;;;;;;5037358;28;20499;-79
2023/08/19 07:17:31;;;;;;;18.47;16.93;;;24.70;99.90;;;;;;5033377;28;20527;-80
2023/08/19 07:19:58;;;;;;;20.87;18.83;;;24.80;99.90;;;;;;5031671;28;20471;-79
2023/08/19 07:22:28;;;;;;;17.43;16.10;;;24.80;99.90;;;;;;5047942;28;20507;-81
2023/08/19 07:24:56;;;;;;;18.60;17.10;;;24.90;99.90;;;;;;5036831;28;20965;-82
2023/08/19 07:27:23;;;;;;;18.40;17.00;;;25.00;99.90;;;;;;5038079;28;20515;-81
2023/08/19 07:29:51;;;;;;;17.00;15.50;;;25.10;99.90;;;;;;5037083;28;20480;-81
2023/08/19 07:32:20;;;;;;;16.33;15.13;;;25.20;99.90;;;;;;5040608;28;20468;-80
2023/08/19 07:34:48;;;;;;;19.13;17.67;;;25.30;99.90;;;;;;5033673;28;20486;-80
2023/08/19 07:37:18;;;;;;;18.07;16.60;;;25.40;99.90;;;;;;5060525;28;20807;-82
2023/08/19 07:39:45;;;;;;;16.47;15.17;;;25.50;99.90;;;;;;5075801;28;20462;-81
2023/08/19 07:42:12;;;;;;;18.97;17.17;;;25.60;99.90;;;;;;5062952;28;20495;-82
2023/08/19 07:44:44;;;;;;;15.93;14.70;;;25.60;99.90;;;;;;5074668;28;20537;-80
2023/08/19 07:47:12;;;;;;;16.20;14.90;;;25.70;99.90;;;;;;5075366;28;20545;-80
2023/08/19 07:49:39;;;;;;;16.60;15.00;;;25.80;99.90;;;;;;5075170;28;20475;-80
2023/08/19 07:52:08;;;;;;;17.43;15.90;;;25.90;99.90;;;;;;5075245;28;20525;-82
2023/08/19 07:54:35;;;;;;;17.23;15.93;;;26.00;99.90;;;;;;5074854;28;20862;-79
2023/08/19 07:57:02;;;;;;;16.73;15.23;;;26.00;99.90;;;;;;5075565;28;20476;-80
2023/08/19 07:59:29;;;;;;;17.50;16.20;;;26.10;99.90;;;;;;5075155;28;20467;-80
2023/08/19 08:01:57;;;;;;;17.60;16.00;;;26.10;99.90;;;;;;5073785;28;20454;-81
2023/08/19 08:04:24;;;;;;;17.27;15.87;;;26.20;99.90;;;;;;5075171;28;20553;-82
2023/08/19 08:06:52;;;;;;;17.30;15.90;;;26.20;99.90;;;;;;5074682;28;20475;-82
2023/08/19 08:09:20;;;;;;;17.97;16.40;;;26.30;99.90;;;;;;5074795;28;20491;-81
2023/08/19 08:11:48;;;;;;;15.60;14.33;;;26.40;99.90;;;;;;5074717;28;20464;-81
2023/08/19 08:14:22;;;;;;;18.00;16.60;;;26.40;99.90;;;;;;5075446;28;20478;-81
2023/08/19 08:16:51;;;;;;;17.10;15.50;;;26.50;99.90;;;;;;5074265;28;20478;-81
2023/08/19 08:19:17;;;;;;;17.60;16.10;;;26.60;99.90;;;;;;5075081;28;20522;-83
2023/08/19 08:21:45;;;;;;;15.97;14.77;;;26.60;99.90;;;;;;5076184;28;20467;-81
2023/08/19 08:24:12;;;;;;;17.40;15.70;;;26.70;99.90;;;;;;5075189;28;20476;-80
2023/08/19 08:26:40;;;;;;;15.67;14.53;;;26.70;99.90;;;;;;5075173;28;20974;-81
2023/08/19 08:29:07;;;;;;;15.83;14.40;;;26.80;99.90;;;;;;5075077;28;21075;-82
2023/08/19 08:31:34;;;;;;;13.83;12.83;;;26.90;99.90;;;;;;5074801;28;20547;-80
2023/08/19 08:34:05;;;;;;;15.73;14.50;;;27.00;99.90;;;;;;5074931;28;20469;-82
2023/08/19 08:36:32;;;;;;;14.70;13.53;;;27.10;99.90;;;;;;5074374;28;20514;-83
2023/08/19 08:38:59;;;;;;;14.20;13.10;;;27.10;99.90;;;;;;5079156;28;20476;-80
2023/08/19 08:41:26;;;;;;;15.70;14.43;;;27.20;99.90;;;;;;5076926;28;20615;-83
2023/08/19 08:43:56;;;;;;;14.47;13.07;;;27.20;99.90;;;;;;5075227;28;20508;-81
2023/08/19 08:46:26;;;;;;;14.80;13.70;;;27.30;99.90;;;;;;5075650;28;20500;-80
2023/08/19 08:48:57;;;;;;;17.80;16.30;;;27.30;99.90;;;;;;5082065;28;20469;-80
2023/08/19 08:51:26;;;;;;;16.27;14.93;;;27.30;99.90;;;;;;5075698;28;20475;-80
2023/08/19 08:53:55;;;;;;;13.50;12.60;;;27.30;99.90;;;;;;5075927;28;20495;-79
2023/08/19 08:56:23;;;;;;;15.53;14.23;;;27.40;99.90;;;;;;5076675;28;20481;-80
2023/08/19 08:58:51;;;;;;;15.63;14.23;;;27.40;99.90;;;;;;5074400;28;20867;-82
2023/08/19 09:01:22;;;;;;;16.47;15.17;;;27.40;99.90;;;;;;5074264;28;20979;-83
2023/08/19 09:03:52;;;;;;;15.50;14.20;;;27.50;99.90;;;;;;5075173;28;20499;-82
2023/08/19 09:06:19;;;;;;;14.53;13.40;;;27.50;99.90;;;;;;5074121;28;20473;-83
2023/08/19 09:09:01;;;;;;;14.17;12.87;;;27.50;99.90;;;;;;5074076;28;20470;-81
2023/08/19 09:11:29;;;;;;;15.67;14.37;;;27.60;99.90;;;;;;5074541;28;20472;-83
2023/08/19 09:14:06;;;;;;;14.53;13.43;;;27.70;99.90;;;;;;5073791;28;20511;-83
2023/08/19 09:16:34;;;;;;;14.53;13.43;;;27.70;99.90;;;;;;5074124;28;20861;-84
2023/08/19 09:19:01;;;;;;;15.97;14.67;;;27.80;99.90;;;;;;5073473;28;20488;-83
2023/08/19 09:21:28;;;;;;;14.50;13.33;;;27.80;99.90;;;;;;5074153;28;20463;-82
2023/08/19 09:27:33;;;;;;;13.23;12.23;;;27.90;99.90;;;;;;5061087;28;20577;-81
2023/08/19 09:30:00;;;;;;;13.93;12.80;;;27.90;99.90;;;;;;5063356;28;21065;-83
2023/08/19 09:32:41;;;;;;;14.10;13.00;;;28.00;99.90;;;;;;5072704;28;20501;-82
2023/08/19 09:35:11;;;;;;;14.93;13.70;;;28.00;99.90;;;;;;5074182;28;20498;-81
2023/08/19 09:37:39;;;;;;;13.53;12.33;;;28.10;99.90;;;;;;5074383;28;20482;-81
2023/08/19 09:40:11;;;;;;;12.77;11.73;;;28.20;99.90;;;;;;5063724;28;20504;-83
2023/08/19 09:42:38;;;;;;;11.87;11.03;;;28.20;99.90;;;;;;5073518;28;20446;-81
2023/08/19 09:45:18;;;;;;;11.70;10.97;;;28.40;99.90;;;;;;5074269;28;20484;-84
2023/08/19 09:47:50;;;;;;;12.00;11.20;;;28.40;99.90;;;;;;5074532;28;20461;-81
2023/08/19 09:50:20;;;;;;;10.93;10.10;;;28.50;99.90;;;;;;5074900;28;20485;-82
2023/08/19 09:52:55;;;;;;;11.37;10.47;;;28.60;99.90;;;;;;5074159;28;20469;-83
2023/08/19 09:55:24;;;;;;;11.90;11.00;;;28.70;99.90;;;;;;5074497;28;20473;-81
2023/08/19 09:58:05;;;;;;;12.10;11.00;;;28.70;99.90;;;;;;5075061;28;20962;-84
2023/08/19 10:00:32;;;;;;;12.33;11.37;;;28.80;99.90;;;;;;5073123;28;20462;-81
2023/08/19 10:03:01;;;;;;;10.80;10.00;;;28.90;99.90;;;;;;5075406;28;20476;-82
2023/08/19 10:05:32;;;;;;;11.33;10.27;;;29.00;99.90;;;;;;5075540;28;20546;-81
2023/08/19 10:08:04;;;;;;;11.33;10.40;;;29.10;99.90;;;;;;5076336;28;20541;-81
2023/08/19 10:10:33;;;;;;;11.63;10.43;;;29.10;99.90;;;;;;5081240;28;20462;-82
2023/08/19 10:13:12;;;;;;;10.67;9.83;;;29.20;99.90;;;;;;5077487;28;20454;-82
2023/08/19 10:15:43;;;;;;;10.43;9.73;;;29.20;99.90;;;;;;5063924;28;20546;-81
2023/08/19 10:18:17;;;;;;;10.40;9.53;;;29.30;99.90;;;;;;5078262;28;20834;-81
2023/08/19 10:20:47;;;;;;;9.47;8.70;;;29.30;99.90;;;;;;5077861;28;20807;-81
2023/08/19 10:23:16;;;;;;;10.20;9.37;;;29.40;99.90;;;;;;5079023;28;20457;-81
2023/08/19 10:25:46;;;;;;;10.53;9.77;;;29.40;99.90;;;;;;5084872;28;20470;-81
2023/08/19 10:28:53;;;;;;;12.00;10.93;;;29.50;99.90;;;;;;5074874;28;20505;-82
2023/08/19 10:31:30;;;;;;;10.50;9.80;;;29.50;99.90;;;;;;5071253;28;20548;-80
2023/08/19 10:33:59;;;;;;;11.07;10.30;;;29.60;99.90;;;;;;5086085;28;20458;-82
2023/08/19 10:36:33;;;;;;;11.70;10.80;;;29.60;99.90;;;;;;5088759;28;20488;-81
2023/08/19 10:39:01;;;;;;;10.93;10.23;;;29.70;99.90;;;;;;5082636;28;20473;-81
2023/08/19 10:41:40;;;;;;;11.77;10.97;;;29.70;99.90;;;;;;5091675;28;20481;-81
2023/08/19 10:44:09;;;;;;;11.67;10.70;;;29.80;99.90;;;;;;5091287;28;20454;-80
2023/08/19 10:46:38;;;;;;;11.97;10.97;;;29.80;99.90;;;;;;5087484;28;20462;-82
2023/08/19 10:49:12;;;;;;;11.60;10.70;;;29.80;99.90;;;;;;5083041;28;20518;-81
2023/08/19 10:51:57;;;;;;;13.20;12.20;;;29.80;99.90;;;;;;5084488;28;20557;-81
2023/08/19 10:54:38;;;;;;;12.17;11.30;;;29.80;99.90;;;;;;5085421;28;20466;-82
2023/08/19 10:57:28;;;;;;;11.33;10.53;;;29.70;99.90;;;;;;5085235;28;20517;-82
2023/08/19 11:00:04;;;;;;;11.63;10.83;;;29.70;99.90;;;;;;5083731;28;20446;-81
2023/08/19 11:02:33;;;;;;;11.80;10.90;;;29.80;99.90;;;;;;5086520;28;20458;-81
2023/08/19 11:05:03;;;;;;;10.43;9.73;;;29.80;99.90;;;;;;5084695;28;20749;-83
2023/08/19 11:07:34;;;;;;;10.57;9.87;;;29.70;99.90;;;;;;5081073;28;20477;-80
2023/08/19 11:10:03;;;;;;;12.17;11.37;;;29.80;99.90;;;;;;5079637;28;20454;-82
2023/08/19 11:12:30;;;;;;;13.30;12.40;;;29.80;99.90;;;;;;5080014;28;20959;-81
2023/08/19 11:14:59;;;;;;;11.20;10.43;;;29.80;99.90;;;;;;5078563;28;20811;-81
2023/08/19 11:17:35;;;;;;;11.90;11.00;;;29.60;99.90;;;;;;5067634;28;20481;-80
2023/08/19 11:20:14;;;;;;;12.00;11.07;;;29.70;99.90;;;;;;5079626;28;20458;-80
2023/08/19 11:22:45;;;;;;;13.30;12.40;;;29.60;99.90;;;;;;5079272;28;20470;-80
2023/08/19 11:25:13;;;;;;;14.70;13.50;;;29.50;99.90;;;;;;5081095;28;20466;-81
2023/08/19 11:27:41;;;;;;;12.00;11.10;;;29.50;99.90;;;;;;5083368;28;20471;-80
2023/08/19 11:30:11;;;;;;;12.93;12.03;;;29.40;99.90;;;;;;5083487;28;20552;-82
2023/08/19 11:32:39;;;;;;;13.47;12.37;;;29.50;99.90;;;;;;5085544;28;20471;-81
2023/08/19 11:35:08;;;;;;;12.87;11.90;;;29.50;99.90;;;;;;5082284;28;20462;-82
2023/08/19 11:37:40;;;;;;;11.73;10.93;;;29.50;99.90;;;;;;5083960;28;20466;-82
2023/08/19 11:40:13;;;;;;;11.70;10.80;;;29.40;99.90;;;;;;5082603;28;20459;-82
2023/08/19 11:42:39;;;;;;;12.70;11.80;;;29.40;99.90;;;;;;5078748;28;20473;-82
2023/08/19 11:45:11;;;;;;;12.30;11.40;;;29.40;99.90;;;;;;5077508;28;20470;-82
2023/08/19 11:47:39;;;;;;;12.27;11.30;;;29.40;99.90;;;;;;5077294;28;20481;-81
2023/08/19 11:50:10;;;;;;;10.83;10.03;;;29.40;99.90;;;;;;5078606;28;20458;-79
2023/08/19 11:52:37;;;;;;;11.40;10.50;;;29.40;99.90;;;;;;5077165;28;20964;-81
2023/08/19 11:55:07;;;;;;;12.60;11.80;;;29.40;99.90;;;;;;5077875;28;20516;-81
2023/08/19 11:57:35;;;;;;;10.87;9.97;;;29.40;99.90;;;;;;5077961;28;20565;-81
2023/08/19 12:00:04;;;;;;;11.60;10.80;;;29.40;99.90;;;;;;5076931;28;20471;-80
2023/08/19 12:02:33;;;;;;;12.10;11.10;;;29.40;99.90;;;;;;5078209;28;20544;-81
2023/08/19 12:05:00;;;;;;;10.77;9.87;;;29.30;99.90;;;;;;5078938;28;20474;-81
2023/08/19 12:07:30;;;;;;;10.90;10.10;;;29.40;99.90;;;;;;5080104;28;20500;-80
2023/08/19 12:09:58;;;;;;;10.10;9.30;;;29.50;99.90;;;;;;5076824;28;20539;-81
2023/08/19 12:12:25;;;;;;;10.47;9.67;;;29.40;99.90;;;;;;5074988;28;20496;-81
2023/08/19 12:14:53;;;;;;;11.93;10.90;;;29.40;99.90;;;;;;5074810;28;20481;-82
2023/08/19 12:17:20;;;;;;;11.27;10.40;;;29.40;99.90;;;;;;5075899;28;20462;-80
2023/08/19 12:19:49;;;;;;;10.93;10.23;;;29.30;99.90;;;;;;5075054;28;20481;-81
2023/08/19 12:22:18;;;;;;;11.03;10.13;;;29.10;99.90;;;;;;5075905;28;20482;-80
2023/08/19 12:24:47;;;;;;;11.63;10.83;;;29.00;99.90;;;;;;5076786;28;20470;-82
2023/08/19 12:27:14;;;;;;;10.77;9.97;;;28.80;99.90;;;;;;5076404;28;20458;-82
2023/08/19 12:29:42;;;;;;;11.37;10.50;;;28.70;99.90;;;;;;5076414;28;20465;-83
2023/08/19 12:32:15;;;;;;;11.33;10.50;;;28.60;99.90;;;;;;5076224;28;20490;-80
2023/08/19 12:34:42;;;;;;;11.67;10.67;;;28.60;99.90;;;;;;5076116;28;20497;-81
2023/08/19 12:37:09;;;;;;;11.13;10.40;;;28.60;99.90;;;;;;5076159;28;20952;-81
2023/08/19 12:42:33;;;;;;;12.07;11.17;;;28.70;99.90;;;;;;5136089;27;20596;-81
2023/08/19 12:45:00;;;;;;;12.07;11.20;;;28.90;99.90;;;;;;5103481;28;20468;-80